TSP Talk
logout   logout
Contact Us | Logout
     
November 19, 2018, 3:08 am (ET / EDT)
TSP Talk Market Comments TSP AutoTracker Premiums Site Map TSP Funds Forum Returns

                 
Tracker Main Menu | Tracker Member Menu | My IFT Records | How to Get Started | Email Updates
                 

Members ranking and current allocation as of: 2018-11-16 (COB)

Press Go back to the previous page   

View a specific date* "yyyy-mm-dd"
* Dates older than 6 months must be a month ending date.

Underlined column headings can be sorted
Rank Username YTD Returns MTD Returns Start Date
1 Volfan 15.92 % 4.09 % 2018-01-01
2 american42 14.30 % -1.19 % 2018-01-01
3 Butters 13.54 % -0.58 % 2018-01-01
4 Dorado 11.78 % -0.34 % 2018-01-01
5 raiderddj 11.15 % 0.14 % 2018-01-01
6 FLtiger 11.03 % 1.53 % 2018-01-01
7 fran1775 11.00 % -0.58 % 2018-01-01
8 widdicom 10.29 % -2.36 % 2018-01-01
9 dirtboy27 10.18 % ** 0.14 % 2018-01-01
10 TXTornados 10.10 % ** 0.14 % 2018-01-01
11 EricDeLee 10.05 % 3.27 % 2018-01-01
12 Jayeks 9.82 % 0.14 % 2018-01-01
13 userque 9.76 % -2.55 % 2018-01-01
14 Nadeem 9.49 % -1.19 % 2018-01-01
15 Supercell68 9.48 % 0.69 % 2018-01-01
16 ephsns2 9.38 % 0.76 % 2018-01-01
17 Lostdawg 8.80 % 0.14 % 2018-01-01
18 jnchandrew 8.46 % 0.14 % 2018-01-01
19 Ducksrule 8.01 % 1.07 % 2018-01-01
20 taz2018 * 7.88 % ** 0.14 % 2018-01-04
21 RushSlowly 7.78 % 1.07 % 2018-01-01
22 Sign_Stealer 7.27 % 0.14 % 2018-01-01
23 KNUCKLEDRAGGER 7.15 % 1.33 % 2018-01-01
24 poolman 7.12 % 0.14 % 2018-01-01
25 EWB! 6.97 % 0.89 % 2018-01-01
26 tataberto 6.96 % 0.14 % 2018-01-01
27 pamkk 6.93 % 0.98 % 2018-01-01
28 RV7 6.85 % 2.12 % 2018-01-01
29 Udflyer01 6.82 % 1.65 % 2018-01-01
30 neptune 6.74 % 2.28 % 2018-01-01
31 Frito15 6.71 % 0.42 % 2018-01-01
32 J-Trader 6.59 % 1.57 % 2018-01-01
33 tink 6.54 % 0.56 % 2018-01-01
34 Lynx 6.52 % ** 0.14 % 2018-01-01
35 Hokieduffer * 6.42 % 0.33 % 2018-01-04
36 ken863 6.34 % ** 0.14 % 2018-01-01
37 tmc1045 6.32 % 0.14 % 2018-01-01
38 Erie 6.31 % ** 0.14 % 2018-01-01
39 Blarney 6.07 % 0.14 % 2018-01-01
40 NewBlackShirt 6.01 % 0.33 % 2018-01-01
41 Bfejeran 5.94 % 0.98 % 2018-01-01
42 BigBully 5.86 % 4.17 % 2018-01-01
43 IFTrader 5.86 % 0.14 % 2018-01-01
44 Mauser 5.72 % ** 0.14 % 2018-01-01
45 Jrfich 5.51 % 0.22 % 2018-01-01
46 Fenway 5.40 % 0.36 % 2018-01-01
47 Holden_Caufield 5.38 % 4.86 % 2018-01-01
48 Bighorn6 5.30 % ** 0.98 % 2018-01-01
49 Hamhocs 5.29 % -0.57 % 2018-01-01
50 totallykool 5.18 % 0.14 % 2018-01-01
Rank Username YTD Returns MTD Returns Start Date
51 riptide17 5.14 % 2.53 % 2018-01-01
52 baldhippie 5.12 % 0.65 % 2018-01-01
53 ChuckH 5.07 % ** 0.14 % 2018-01-01
54 moto911 5.04 % ** 0.14 % 2018-01-01
55 DistributionKiller 5.00 % 0.14 % 2018-01-01
56 adamo 4.83 % 2.71 % 2018-01-01
57 Sippeeboy 4.80 % 0.14 % 2018-01-01
58 DLBJr 4.73 % ** 0.14 % 2018-01-01
59 hd123sftail 4.73 % ** 0.14 % 2018-01-01
60 TLeo96 4.71 % 3.54 % 2018-01-01
61 Herdman 4.71 % ** 1.07 % 2018-01-01
62 jbwalters 4.69 % -3.11 % 2018-01-01
63 cboor 4.59 % 3.66 % 2018-01-01
64 Semper 4.59 % 0.14 % 2018-01-01
65 SKIPPER 4.43 % 0.89 % 2018-01-01
66 Cowboy187 4.43 % ** 0.14 % 2018-01-01
67 Maine-i-ac 4.40 % -1.35 % 2018-01-01
68 poi9 4.39 % 0.14 % 2018-01-01
69 Solangel2 * 4.36 % ** 0.14 % 2018-03-05
70 MakeItRain 4.22 % 0.89 % 2018-01-01
71 mikepop 4.18 % 0.14 % 2018-01-01
72 12squared 4.15 % 0.28 % 2018-01-01
73 artie32 4.15 % -0.18 % 2018-01-01
74 ctijolly 4.12 % ** 0.14 % 2018-01-01
75 dave 4.08 % 1.07 % 2018-01-01
76 vexter 4.08 % 1.07 % 2018-01-01
77 berg1315 4.08 % 1.07 % 2018-01-01
78 1965Vintage 4.08 % ** 1.07 % 2018-01-01
79 8_percent 4.08 % ** 1.07 % 2018-01-01
80 BigMike 4.08 % ** 1.07 % 2018-01-01
81 C-fund 4.08 % 1.07 % 2018-01-01
82 cenno 4.08 % ** 1.07 % 2018-01-01
83 confusedcookie 4.08 % ** 1.07 % 2018-01-01
84 galaxy101 4.08 % ** 1.07 % 2018-01-01
85 godhelpus 4.08 % ** 1.07 % 2018-01-01
86 JVC1979 4.08 % ** 1.07 % 2018-01-01
87 mikekellyonline 4.08 % ** 1.07 % 2018-01-01
88 NightEagle 4.08 % ** 1.07 % 2018-01-01
89 nugget 4.08 % ** 1.07 % 2018-01-01
90 Rhodo8914 4.08 % ** 1.07 % 2018-01-01
91 RWJorg 4.08 % ** 1.07 % 2018-01-01
92 Sarchie 4.08 % ** 1.07 % 2018-01-01
93 tken 4.08 % ** 1.07 % 2018-01-01
94 Jimb 4.05 % -1.19 % 2018-01-01
95 denbo 4.03 % ** 0.89 % 2018-01-01
96 Golfer38 4.03 % ** 1.07 % 2018-01-01
97 soupydoom 3.87 % -0.24 % 2018-01-01
98 Bmoredunks 3.81 % ** 0.14 % 2018-01-01
99 adestonobis 3.81 % ** 1.07 % 2018-01-01
100 Golfdude 3.79 % ** 0.14 % 2018-01-01
Rank Username YTD Returns MTD Returns Start Date
101 slayer72 3.78 % 0.25 % 2018-01-01
102 lmcues 3.69 % 2.23 % 2018-01-01
103 BamaAF 3.64 % 0.56 % 2018-01-01
104 Britts4life 3.63 % 0.14 % 2018-01-01
105 jarhed0689 3.61 % 1.07 % 2018-01-01
106 safetyguy 3.60 % 0.14 % 2018-01-01
107 burrocrat 3.59 % ** 0.14 % 2018-01-01
108 PublicEnemyNo1 * 3.57 % 0.34 % 2018-04-10
109 RX-7 3.57 % ** 1.07 % 2018-01-01
110 jerodt 3.50 % 0.14 % 2018-01-01
111 TerpTrader 3.43 % 0.64 % 2018-01-01
112 daze823 3.42 % 0.14 % 2018-01-01
113 Spinks 3.38 % ** 1.03 % 2018-01-01
114 arrow_point 3.37 % -1.40 % 2018-01-01
115 Bluewing00 3.35 % 0.74 % 2018-01-01
116 Bender 3.30 % 0.60 % 2018-01-01
117 Meanwhile * 3.27 % 0.14 % 2018-03-06
118 philcam 3.27 % ** 1.07 % 2018-01-01
119 hotwings 3.26 % 0.45 % 2018-01-01
120 Inve5tor 3.25 % ** 0.57 % 2018-01-01
121 rjeeeeezy 3.22 % ** 1.02 % 2018-01-01
122 Benny7563 3.21 % -1.97 % 2018-01-01
123 SSJodon 3.18 % 0.14 % 2018-01-01
124 oOSupremeOo 3.16 % 0.14 % 2018-01-01
125 DCop 3.16 % 1.07 % 2018-01-01
126 jumboscott 3.15 % ** 0.89 % 2018-01-01
127 OBGibby 3.08 % 0.14 % 2018-01-01
128 llealo53 3.04 % 0.28 % 2018-01-01
129 phxmrc 3.03 % 3.87 % 2018-01-01
130 revel 3.03 % ** 1.02 % 2018-01-01
131 Mustangmoose302 2.92 % 1.11 % 2018-01-01
132 meyersj 2.89 % 1.00 % 2018-01-01
133 trobbi33 2.89 % ** 1.01 % 2018-01-01
134 ttn 2.88 % ** 1.07 % 2018-01-01
135 goose 2.87 % 0.24 % 2018-01-01
136 OBXTrader 2.86 % 0.14 % 2018-01-01
137 WallStreet 2.86 % ** 1.01 % 2018-01-01
138 FedUpFed 2.85 % 2.23 % 2018-01-01
139 felinecrl 2.84 % -0.40 % 2018-01-01
140 justbidinmytime 2.83 % ** 0.88 % 2018-01-01
141 mrduckmd1 2.83 % ** 0.14 % 2018-01-01
142 TraderJane 2.78 % 0.98 % 2018-01-01
143 Brandaman * 2.77 % ** 0.56 % 2018-01-08
144 Scarfinger68 2.69 % ** 1.00 % 2018-01-01
145 novatwo 2.68 % ** 1.00 % 2018-01-01
146 vectorman 2.67 % 0.14 % 2018-01-01
147 edeckman 2.64 % 0.40 % 2018-01-01
148 PessOptimist 2.64 % ** 0.27 % 2018-01-01
149 Rod 2.64 % ** 1.00 % 2018-01-01
150 tucotsp 2.63 % 0.87 % 2018-01-01
Rank Username YTD Returns MTD Returns Start Date
151 mikeeyyy 2.63 % 1.07 % 2018-01-01
152 LAT 2.58 % 1.75 % 2018-01-01
153 Shomedamuny 2.58 % 0.02 % 2018-01-01
154 coastalite 2.58 % ** 0.89 % 2018-01-01
155 DansTSP 2.55 % ** 0.20 % 2018-01-01
156 kdr1 2.53 % 4.47 % 2018-01-01
157 Longstreet 2.53 % ** 0.24 % 2018-01-01
158 texaggies89 2.52 % 0.14 % 2018-01-01
159 azimuth90 * 2.52 % 0.05 % 2018-02-05
160 Tawny27 2.52 % 0.14 % 2018-01-01
161 12XU 2.52 % ** 0.14 % 2018-01-01
162 angus36 2.52 % ** 0.14 % 2018-01-01
163 anthony 2.52 % ** 0.14 % 2018-01-01
164 Bobcat777 2.52 % ** 0.14 % 2018-01-01
165 Brinky 2.52 % ** 0.14 % 2018-01-01
166 burros-ark 2.52 % ** 0.14 % 2018-01-01
167 Captaincuse 2.52 % ** 0.14 % 2018-01-01
168 Class 2.52 % ** 0.14 % 2018-01-01
169 Cybernaut 2.52 % ** 0.14 % 2018-01-01
170 dadofsix 2.52 % ** 0.14 % 2018-01-01
171 dmanron58 2.52 % ** 0.14 % 2018-01-01
172 downspiral 2.52 % ** 0.14 % 2018-01-01
173 DrFaustus 2.52 % ** 0.14 % 2018-01-01
174 Dsbouch1 2.52 % ** 0.14 % 2018-01-01
175 Edna1890 2.52 % ** 0.14 % 2018-01-01
176 G-fund 2.52 % 0.14 % 2018-01-01
177 gbloeser 2.52 % ** 0.14 % 2018-01-01
178 GonzoJK 2.52 % ** 0.14 % 2018-01-01
179 grandma 2.52 % ** 0.14 % 2018-01-01
180 Groovin 2.52 % ** 0.14 % 2018-01-01
181 icemanknows 2.52 % ** 0.14 % 2018-01-01
182 ike229 2.52 % ** 0.14 % 2018-01-01
183 jaybro61 2.52 % ** 0.14 % 2018-01-01
184 jeffrey77jones 2.52 % ** 0.14 % 2018-01-01
185 jonfresno 2.52 % ** 0.14 % 2018-01-01
186 jovialmadness 2.52 % ** 0.14 % 2018-01-01
187 kdraya 2.52 % ** 0.14 % 2018-01-01
188 lindoug 2.52 % ** 0.14 % 2018-01-01
189 LoveGrows 2.52 % ** 0.14 % 2018-01-01
190 Marvin2016 2.52 % ** 0.14 % 2018-01-01
191 Master_Key 2.52 % ** 0.14 % 2018-01-01
192 Mikey9774 2.52 % ** 0.14 % 2018-01-01
193 msls6 2.52 % ** 0.14 % 2018-01-01
194 Myemal 2.52 % ** 0.14 % 2018-01-01
195 nate4sho 2.52 % ** 0.14 % 2018-01-01
196 Nick 2.52 % ** 0.14 % 2018-01-01
197 onelownismo 2.52 % ** 0.14 % 2018-01-01
198 pecos_diamond 2.52 % ** 0.14 % 2018-01-01
199 plumber 2.52 % ** 0.14 % 2018-01-01
200 polarbear 2.52 % ** 0.14 % 2018-01-01
Rank Username YTD Returns MTD Returns Start Date
201 prisonguard224 2.52 % ** 0.14 % 2018-01-01
202 rayald 2.52 % ** 0.14 % 2018-01-01
203 RickandRo 2.52 % ** 0.14 % 2018-01-01
204 Robvegas 2.52 % ** 0.14 % 2018-01-01
205 sgammon 2.52 % ** 0.14 % 2018-01-01
206 Snakebite 2.52 % ** 0.14 % 2018-01-01
207 soyousay 2.52 % ** 0.14 % 2018-01-01
208 spinachetr 2.52 % ** 0.14 % 2018-01-01
209 St3gz 2.52 % ** 0.14 % 2018-01-01
210 Stormplant 2.52 % ** 0.14 % 2018-01-01
211 towncop1978 2.52 % ** 0.14 % 2018-01-01
212 TXMightyherc 2.52 % ** 0.14 % 2018-01-01
213 Viva_La_Migra 2.52 % ** 0.14 % 2018-01-01
214 whitemingo 2.52 % ** 0.14 % 2018-01-01
215 woodsman 2.52 % ** 0.14 % 2018-01-01
216 kave 2.51 % 0.52 % 2018-01-01
217 puppylove 2.50 % 0.99 % 2018-01-01
218 RAM56 2.50 % 0.14 % 2018-01-01
219 SnowAviation 2.49 % ** 0.30 % 2018-01-01
220 Tmahal720 2.49 % ** 0.30 % 2018-01-01
221 StockSurfer 2.48 % 0.96 % 2018-01-01
222 ABQTurtle 2.48 % ** 0.14 % 2018-01-01
223 DouglasL 2.48 % ** 1.07 % 2018-01-01
224 Dotard * 2.47 % 0.20 % 2018-01-04
225 merlin 2.47 % ** 0.47 % 2018-01-01
226 tazzymt 2.45 % 1.00 % 2018-01-01
227 Highroller 2.43 % 0.90 % 2018-01-01
228 dwwright3rd 2.43 % ** 0.56 % 2018-01-01
229 olddog 2.42 % ** 0.56 % 2018-01-01
230 wb1960 2.41 % ** 0.74 % 2018-01-01
231 jeffmelendez 2.40 % 1.00 % 2018-01-01
232 eshore07 2.40 % 1.07 % 2018-01-01
233 jrhutch 2.39 % 0.89 % 2018-01-01
234 miyagi 2.38 % ** 0.98 % 2018-01-01
235 pcalderin 2.37 % ** 0.98 % 2018-01-01
236 SPN46er 2.37 % ** 0.98 % 2018-01-01
237 eddie3375 2.36 % 0.89 % 2018-01-01
238 Wildwoman 2.35 % 0.65 % 2018-01-01
239 txfan 2.35 % 0.98 % 2018-01-01
240 dunedad 2.35 % ** 0.98 % 2018-01-01
241 helen 2.35 % ** 0.98 % 2018-01-01
242 jamilaunc 2.35 % ** 0.98 % 2018-01-01
243 rocker2229 2.35 % ** 0.98 % 2018-01-01
244 roonie 2.35 % ** 0.98 % 2018-01-01
245 tdekens 2.35 % ** 0.98 % 2018-01-01
246 25or6to4 2.34 % ** 0.98 % 2018-01-01
247 beachfront 2.34 % ** 0.98 % 2018-01-01
248 packerbart 2.33 % ** 0.98 % 2018-01-01
249 CTV49 2.33 % ** 0.98 % 2018-01-01
250 Humberson 2.33 % ** 0.98 % 2018-01-01
Rank Username YTD Returns MTD Returns Start Date
251 razor 2.33 % ** 0.98 % 2018-01-01
252 Rico69 2.33 % ** 0.98 % 2018-01-01
253 roxiemoron 2.33 % ** 0.98 % 2018-01-01
254 HarleyLar 2.32 % -0.58 % 2018-01-01
255 geargirl 2.32 % 0.98 % 2018-01-01
256 boricua 2.32 % ** 0.98 % 2018-01-01
257 don3149 2.32 % ** 0.98 % 2018-01-01
258 inyadreems 2.32 % ** 0.98 % 2018-01-01
259 Bdiddy74 2.31 % 0.51 % 2018-01-01
260 276bmiller * 2.31 % ** 0.98 % 2018-04-25
261 Badgers69 2.28 % -0.13 % 2018-01-01
262 markisrt4 2.28 % 0.94 % 2018-01-01
263 evob 2.27 % ** 0.98 % 2018-01-01
264 401kboost * 2.27 % ** 1.07 % 2018-04-17
265 kobedog 2.26 % ** 0.40 % 2018-01-01
266 Beacher1 2.23 % ** 0.14 % 2018-01-01
267 motniceguy * 2.22 % ** 0.14 % 2018-02-13
268 VivaV * 2.21 % ** 1.07 % 2018-01-02
269 goforit 2.20 % 1.03 % 2018-01-01
270 yesterdaysnews * 2.20 % ** 0.14 % 2018-02-15
271 alcusmc 2.19 % 0.32 % 2018-01-01
272 cowboyaug4 2.19 % 0.89 % 2018-01-01
273 shybear 2.17 % ** 1.07 % 2018-01-01
274 sgtbriangreen 2.17 % ** 0.14 % 2018-01-01
275 mcrosson * 2.16 % 0.14 % 2018-03-26
276 rallythis 2.16 % ** 1.07 % 2018-01-01
277 flyer_one 2.14 % ** 0.14 % 2018-01-01
278 bdmkg 2.13 % 0.89 % 2018-01-01
279 dialing4dollars 2.12 % 0.16 % 2018-01-01
280 gsrider 2.10 % 0.31 % 2018-01-01
281 cchase06 2.08 % ** 0.45 % 2018-01-01
282 NtvTxan 2.07 % 0.89 % 2018-01-01
283 cyoa1fan 2.06 % ** 1.07 % 2018-01-01
284 Mantonelli 2.06 % ** 0.94 % 2018-01-01
285 tetonshasta 2.05 % 0.48 % 2018-01-01
286 skshunterb 2.01 % ** 1.07 % 2018-01-01
287 Big_Sarge 2.00 % ** 0.96 % 2018-01-01
288 Niner49er52 2.00 % ** 0.96 % 2018-01-01
289 TSPBrett 2.00 % ** 0.96 % 2018-01-01
290 marka1620 1.98 % ** 0.96 % 2018-01-01
291 c130 1.97 % ** 1.07 % 2018-01-01
292 DoughBoy 1.97 % ** 0.96 % 2018-01-01
293 jmtz54 1.92 % -0.51 % 2018-01-01
294 lbeeba8862 1.91 % ** 0.98 % 2018-01-01
295 bones605 1.87 % ** 0.26 % 2018-01-01
296 wdcooper * 1.84 % ** 0.14 % 2018-03-28
297 jasonlwright 1.83 % ** 0.81 % 2018-01-01
298 goldenyears 1.81 % 0.29 % 2018-01-01
299 Rainmaker44 1.81 % ** 0.29 % 2018-01-01
300 L-Income 1.81 % 0.29 % 2018-01-01
Rank Username YTD Returns MTD Returns Start Date
301 madees 1.78 % 0.97 % 2018-01-01
302 SledgeTSP 1.78 % 0.34 % 2018-01-01
303 IWTC 1.77 % ** 0.63 % 2018-01-01
304 bjohnson12 1.66 % ** 0.89 % 2018-01-01
305 hayman 1.66 % ** 0.14 % 2018-01-01
306 ROTOROOTER 1.62 % ** 0.14 % 2018-01-01
307 trudger 1.61 % 0.27 % 2018-01-01
308 TwoYrs2Go 1.61 % -0.58 % 2018-01-01
309 Klear 1.57 % 0.13 % 2018-01-01
310 Anaconda 1.57 % ** 0.36 % 2018-01-01
311 barnowlet 1.57 % ** 0.98 % 2018-01-01
312 biomedrick 1.57 % ** 0.36 % 2018-01-01
313 L2020 1.57 % 0.36 % 2018-01-01
314 drobs 1.56 % ** 0.88 % 2018-01-01
315 SteelSaving 1.55 % ** 0.52 % 2018-01-01
316 dallashalos 1.53 % 0.65 % 2018-01-01
317 Navig8tor 1.52 % ** 0.98 % 2018-01-01
318 FAAM 1.51 % 0.19 % 2018-01-01
319 TradingJoe 1.50 % 1.50 % 2018-01-01
320 gatoremt 1.50 % ** 0.90 % 2018-01-01
321 Barney 1.47 % ** 0.94 % 2018-01-01
322 Bullseye 1.47 % ** 0.94 % 2018-01-01
323 PLANO 1.47 % ** 0.94 % 2018-01-01
324 Attila 1.46 % 0.83 % 2018-01-01
325 gsnswim 1.46 % ** 0.89 % 2018-01-01
326 Pwsimmons 1.45 % ** 0.51 % 2018-01-01
327 ravenstreasures 1.43 % ** 0.63 % 2018-01-01
328 retire15 1.41 % ** 0.98 % 2018-01-01
329 LMBF1_SIM 1.38 % 0.14 % 2018-01-01
330 dcdavis1974 * 1.38 % 0.79 % 2018-02-13
331 jpcavin 1.38 % ** 0.90 % 2018-01-01
332 felixthecat 1.37 % 0.89 % 2018-01-01
333 yeot 1.35 % ** 0.96 % 2018-01-01
334 catsathome 1.34 % ** 0.88 % 2018-01-01
335 Morpheus 1.31 % ** 0.85 % 2018-01-01
336 remang 1.30 % 0.89 % 2018-01-01
337 glysergt 1.30 % ** 0.87 % 2018-01-01
338 kemphrunner 1.29 % ** 0.65 % 2018-01-01
339 DC2scott 1.29 % ** 0.93 % 2018-01-01
340 nbartsch 1.29 % ** 0.93 % 2018-01-01
341 Markster70 1.28 % ** 0.79 % 2018-01-01
342 adam 1.27 % 0.70 % 2018-01-01
343 Jason.Z 1.23 % 0.89 % 2018-01-01
344 kjohnsherr 1.22 % ** 0.36 % 2018-01-01
345 EmoDx 1.20 % ** 0.23 % 2018-01-01
346 Sandbagger6 1.18 % 0.98 % 2018-01-01
347 Cactus 1.17 % 0.00 % 2018-01-01
348 Cathy57 1.17 % 0.98 % 2018-01-01
349 FireGal 1.16 % 0.29 % 2018-01-01
350 KinoFish 1.16 % ** 1.07 % 2018-01-01
Rank Username YTD Returns MTD Returns Start Date
351 twilliams203 1.15 % ** 0.83 % 2018-01-01
352 slwhand 1.14 % ** 0.47 % 2018-01-01
353 thickage 1.13 % ** 0.82 % 2018-01-01
354 treeclimber * 1.12 % ** 0.14 % 2018-06-20
355 lthor 1.09 % ** 1.03 % 2018-01-01
356 ravensfan 1.08 % -2.84 % 2018-01-01
357 DudeWayne 1.07 % 0.71 % 2018-01-01
358 asiapuss 1.05 % ** 0.14 % 2018-01-01
359 ml92222 1.05 % ** 0.70 % 2018-01-01
360 babyneedsshoes 1.04 % ** 0.58 % 2018-01-01
361 coinmanjack 1.04 % ** 0.42 % 2018-01-01
362 endoskell 1.04 % ** 0.88 % 2018-01-01
363 lucy 1.03 % -1.91 % 2018-01-01
364 MarkC 1.02 % 0.89 % 2018-01-01
365 RobinHood 1.00 % 0.14 % 2018-01-01
366 uf_rjeezy 0.99 % ** 0.89 % 2018-01-01
367 squarehorn * 0.99 % ** 0.78 % 2018-03-26
368 jdeacon 0.97 % 0.78 % 2018-01-01
369 spapadopoulos 0.95 % 0.14 % 2018-01-01
370 NSLADL2 0.95 % ** 0.83 % 2018-01-01
371 steve10608 0.94 % 0.14 % 2018-01-01
372 olddb 0.94 % ** 0.91 % 2018-01-01
373 Racerx919 0.92 % ** 0.82 % 2018-01-01
374 JMoody 0.91 % 0.68 % 2018-01-01
375 frostybosty 0.91 % ** 0.98 % 2018-01-01
376 fick 0.91 % ** 0.41 % 2018-01-01
377 whosdabaum * 0.91 % ** 0.64 % 2018-04-04
378 Danjoe * 0.90 % ** 0.32 % 2018-02-07
379 MohammadXX 0.88 % 0.33 % 2018-01-01
380 franky 0.87 % 1.18 % 2018-01-01
381 gaharris 0.86 % ** 0.87 % 2018-01-01
382 p3a 0.85 % 0.36 % 2018-01-01
383 flyoa1 0.85 % 0.14 % 2018-01-01
384 CapeChem 0.84 % 0.48 % 2018-01-01
385 Mlbplayer86 0.84 % ** 0.71 % 2018-01-01
386 Mr_Boooom 0.81 % ** 0.00 % 2018-01-01
387 bkc2a 0.80 % 4.27 % 2018-01-01
388 shanidlc 0.80 % ** 0.45 % 2018-01-01
389 bohammer 0.78 % ** 0.12 % 2018-01-01
390 wwwtractor 0.77 % ** 0.84 % 2018-01-01
391 Elktracker 0.76 % ** 0.84 % 2018-01-01
392 kevmanfoo 0.76 % ** 0.84 % 2018-01-01
393 onerepmax 0.76 % ** 0.84 % 2018-01-01
394 dtf1993 0.73 % ** 0.14 % 2018-01-01
395 soupykid 0.72 % 0.54 % 2018-01-01
396 redhead * 0.71 % 0.46 % 2018-04-12
397 coop65 0.68 % 0.80 % 2018-01-01
398 L2030 0.66 % 0.53 % 2018-01-01
399 UWQLI 0.66 % ** 0.48 % 2018-01-01
400 spikeyball 0.65 % ** 0.81 % 2018-01-01
Rank Username YTD Returns MTD Returns Start Date
401 Mustang2008 0.63 % 0.60 % 2018-01-01
402 Timberwoof 0.60 % 0.55 % 2018-01-01
403 MYDOGZCUTE 0.60 % ** 0.98 % 2018-01-01
404 Cashflow911 0.59 % 0.89 % 2018-01-01
405 marco59 0.59 % ** 0.89 % 2018-01-01
406 48cj2a 0.59 % ** 0.89 % 2018-01-01
407 mikepriest 0.59 % ** 0.89 % 2018-01-01
408 korekaza 0.59 % ** 0.89 % 2018-01-01
409 bighurd51 0.59 % ** 0.89 % 2018-01-01
410 DaddyTin 0.59 % ** 0.89 % 2018-01-01
411 babydux 0.59 % ** 0.89 % 2018-01-01
412 krash9561 0.59 % ** 0.89 % 2018-01-01
413 caseyd8s 0.59 % ** 0.89 % 2018-01-01
414 VPX11 0.59 % ** 0.14 % 2018-01-01
415 VANILLAICE 0.59 % ** 0.89 % 2018-01-01
416 2manyirons 0.59 % ** 0.89 % 2018-01-01
417 a1sauce 0.59 % ** 0.89 % 2018-01-01
418 Aitrus 0.59 % ** 0.89 % 2018-01-01
419 b52vqn 0.59 % ** 0.89 % 2018-01-01
420 bhep 0.59 % ** 0.89 % 2018-01-01
421 bigcountry 0.59 % ** 0.89 % 2018-01-01
422 CapnEddie 0.59 % ** 0.89 % 2018-01-01
423 ccarrolls 0.59 % ** 0.89 % 2018-01-01
424 ccbadc 0.59 % ** 0.89 % 2018-01-01
425 ckeiththeman 0.59 % ** 0.89 % 2018-01-01
426 DaBears17 0.59 % ** 0.89 % 2018-01-01
427 G-Money 0.59 % ** 0.89 % 2018-01-01
428 gibby289 0.59 % ** 0.89 % 2018-01-01
429 gronk007 0.59 % ** 0.89 % 2018-01-01
430 Hank2 0.59 % ** 0.89 % 2018-01-01
431 hemi2020 0.59 % ** 0.89 % 2018-01-01
432 hotelyankee16 0.59 % ** 0.89 % 2018-01-01
433 Jello 0.59 % ** 0.89 % 2018-01-01
434 jmartello 0.59 % ** 0.89 % 2018-01-01
435 jmontalto19 0.59 % ** 0.89 % 2018-01-01
436 jwblanfo 0.59 % ** 0.89 % 2018-01-01
437 kamisu 0.59 % ** 0.89 % 2018-01-01
438 kcfz0t 0.59 % ** 0.89 % 2018-01-01
439 Kennedyd4 0.59 % ** 0.89 % 2018-01-01
440 lettsj 0.59 % ** 0.89 % 2018-01-01
441 luckhapp 0.59 % ** 0.89 % 2018-01-01
442 madchili 0.59 % ** 0.89 % 2018-01-01
443 MahiChaser 0.59 % ** 0.89 % 2018-01-01
444 martycox88 0.59 % ** 0.89 % 2018-01-01
445 n.shift 0.59 % ** 0.89 % 2018-01-01
446 NavyEng 0.59 % ** 0.89 % 2018-01-01
447 offroad 0.59 % ** 0.89 % 2018-01-01
448 paymetoplay 0.59 % ** 0.89 % 2018-01-01
449 peterson82 0.59 % ** 0.89 % 2018-01-01
450 Peteylaw06 0.59 % ** 0.89 % 2018-01-01
Rank Username YTD Returns MTD Returns Start Date
451 pread 0.59 % ** 0.89 % 2018-01-01
452 radarvector 0.59 % ** 0.89 % 2018-01-01
453 rchurchwell 0.59 % ** 0.89 % 2018-01-01
454 S-fund 0.59 % 0.89 % 2018-01-01
455 Shakenbake 0.59 % ** 0.89 % 2018-01-01
456 sierrabravo11 0.59 % ** 0.89 % 2018-01-01
457 sigj 0.59 % ** 0.89 % 2018-01-01
458 skid-kid 0.59 % ** 0.89 % 2018-01-01
459 Sunnyday 0.59 % ** 0.89 % 2018-01-01
460 texcc 0.59 % ** 0.89 % 2018-01-01
461 Turg 0.59 % ** 0.89 % 2018-01-01
462 usaro5 0.59 % ** 0.89 % 2018-01-01
463 Rogue 0.57 % ** 0.34 % 2018-01-01
464 ajcorc * 0.56 % 0.29 % 2018-05-23
465 MadMike61 0.55 % ** 0.29 % 2018-01-01
466 BrandesValue 0.54 % ** 0.83 % 2018-01-01
467 Roymac28 0.53 % ** 0.56 % 2018-01-01
468 sean101 0.52 % ** 0.76 % 2018-01-01
469 mellowmoon 0.51 % 0.98 % 2018-01-01
470 4188729 0.51 % ** 0.74 % 2018-01-01
471 mcash 0.51 % ** 0.69 % 2018-01-01
472 Tubman83 0.50 % 0.89 % 2018-01-01
473 Dargomike * 0.48 % ** 0.58 % 2018-06-06
474 weather 0.46 % ** 0.55 % 2018-01-01
475 PublicServant 0.42 % ** 0.82 % 2018-01-01
476 SummerLove 0.40 % ** 0.76 % 2018-01-01
477 arhodie 0.35 % ** 0.59 % 2018-01-01
478 BrkBred247 0.34 % 0.00 % 2018-01-01
479 stbondar 0.33 % ** 0.29 % 2018-01-01
480 Babygirl07 0.32 % 1.07 % 2018-01-01
481 wayne622 0.32 % -0.73 % 2018-01-01
482 riverdestiny 0.30 % ** 0.69 % 2018-01-01
483 whitmoresl 0.26 % ** 0.72 % 2018-01-01
484 carneyb 0.25 % ** 0.60 % 2018-01-01
485 Flyin2Low 0.25 % ** 0.77 % 2018-01-01
486 L2040 0.25 % 0.60 % 2018-01-01
487 Mucho_Dinero 0.24 % 0.89 % 2018-01-01
488 pinion 0.24 % ** 0.59 % 2018-01-01
489 ROCKMAXX 0.22 % 0.69 % 2018-01-01
490 Bullet 0.21 % 1.07 % 2018-01-01
491 Dennisthemenace * 0.20 % 0.14 % 2018-10-23
492 Kentucky 0.16 % 0.50 % 2018-01-01
493 1derman 0.15 % ** 0.95 % 2018-01-01
494 Carwin 0.14 % 1.03 % 2018-01-01
495 amuraider 0.14 % ** 0.45 % 2018-01-01
496 jplecain 0.13 % ** 0.77 % 2018-01-01
497 BGBassLady64 0.10 % ** 0.63 % 2018-01-01
498 ArkHills 0.09 % ** 0.42 % 2018-01-01
499 EarlyRetire 0.09 % ** 0.29 % 2018-01-01
500 RECONK9 * 0.08 % ** 0.77 % 2018-01-08
Rank Username YTD Returns MTD Returns Start Date
501 sparty83 0.08 % ** 0.71 % 2018-01-01
502 nightman 0.07 % 1.46 % 2018-01-01
503 funkyhunky 0.07 % ** 0.80 % 2018-01-01
504 OhioOkie 0.07 % ** 0.80 % 2018-01-01
505 redman1970 0.07 % ** 0.80 % 2018-01-01
506 Jane 0.06 % 0.80 % 2018-01-01
507 pdug 0.06 % 0.80 % 2018-01-01
508 standerson 0.06 % ** 0.80 % 2018-01-01
509 cholondo 0.04 % ** 0.64 % 2018-01-01
510 Mista_Magee 0.04 % ** 0.89 % 2018-01-01
511 Wishin2Retire 0.04 % ** 0.70 % 2018-01-01
512 1Mech 0.01 % ** 0.96 % 2018-01-01
513 yanni123 0.00 % ** 0.98 % 2018-01-01
514 Forecaster -0.01 % ** 0.78 % 2018-01-01
515 Boghie -0.04 % ** 0.71 % 2018-01-01
516 tabasco395 -0.06 % 0.81 % 2018-01-01
517 Shirt357 -0.06 % 0.91 % 2018-01-01
518 fluffypotato -0.07 % ** 0.78 % 2018-01-01
519 rjperry -0.07 % ** 0.78 % 2018-01-01
520 tankerclown -0.09 % 0.97 % 2018-01-01
521 93GT -0.09 % ** 0.65 % 2018-01-01
522 Jayt23 -0.09 % ** 0.65 % 2018-01-01
523 L2050 -0.09 % 0.65 % 2018-01-01
524 Nightrain -0.09 % ** 0.65 % 2018-01-01
525 swordandcross -0.09 % ** 0.65 % 2018-01-01
526 tashabh -0.09 % ** 0.65 % 2018-01-01
527 Aviator_Guy -0.10 % ** 0.98 % 2018-01-01
528 Knight25 -0.10 % ** 0.79 % 2018-01-01
529 petersons -0.11 % ** 0.79 % 2018-01-01
530 2Funds -0.12 % 0.42 % 2018-01-01
531 puddy -0.16 % 0.26 % 2018-01-01
532 renkcub -0.17 % 0.28 % 2018-01-01
533 Captcaveman -0.17 % 0.14 % 2018-01-01
534 BorderBlade -0.19 % 0.89 % 2018-01-01
535 ilduce -0.20 % ** 0.79 % 2018-01-01
536 Jayru -0.20 % ** 0.66 % 2018-01-01
537 Rummy1958 -0.24 % 1.07 % 2018-01-01
538 Sensei -0.29 % ** 0.86 % 2018-01-01
539 shinypartsup -0.30 % 0.41 % 2018-01-01
540 TMUFR -0.32 % 0.22 % 2018-01-01
541 Duboisdan * -0.33 % -0.42 % 2018-10-19
542 bsw4aker92 * -0.35 % 0.98 % 2018-01-08
543 ijmurray -0.37 % ** 0.81 % 2018-01-01
544 jpatriarca -0.37 % ** 0.44 % 2018-01-01
545 Pittdog -0.39 % 0.72 % 2018-01-01
546 Bowfish -0.39 % ** 0.54 % 2018-01-01
547 Anthony.l * -0.40 % 0.58 % 2018-06-05
548 3days -0.41 % ** 0.89 % 2018-01-01
549 mrtruckaudi -0.43 % 0.98 % 2018-01-01
550 craigerv -0.46 % 0.89 % 2018-01-01
Rank Username YTD Returns MTD Returns Start Date
551 KyFan1 -0.47 % 0.89 % 2018-01-01
552 clester -0.47 % 0.58 % 2018-01-01
553 badgerland -0.48 % 0.14 % 2018-01-01
554 Sam_5_0 -0.48 % ** 0.89 % 2018-01-01
555 TKMike -0.49 % ** 0.68 % 2018-01-01
556 Unmanned -0.50 % 0.98 % 2018-01-01
557 fordest * -0.50 % 0.89 % 2018-09-25
558 Scientisteny * -0.51 % ** 0.14 % 2018-07-19
559 CadMeUm -0.51 % ** 0.65 % 2018-01-01
560 firstpersonpl -0.52 % ** 0.31 % 2018-01-01
561 JAFI -0.54 % ** 0.50 % 2018-01-01
562 RandalDan -0.54 % ** 0.14 % 2018-01-01
563 Ozzy_357924 -0.56 % 0.85 % 2018-01-01
564 noclue -0.57 % 0.75 % 2018-01-01
565 resurgemus -0.58 % 0.56 % 2018-01-01
566 John770 -0.59 % 0.63 % 2018-01-01
567 alevin -0.63 % 0.14 % 2018-01-01
568 Meteorology -0.64 % -1.46 % 2018-01-01
569 20%_each -0.65 % 0.52 % 2018-01-01
570 PEP -0.66 % ** 0.89 % 2018-01-01
571 Supernova2033 -0.66 % ** 0.71 % 2018-01-01
572 Towanda -0.67 % ** 0.50 % 2018-01-01
573 Mongos -0.69 % 0.63 % 2018-01-01
574 jswright -0.69 % 0.75 % 2018-01-01
575 wwiggin2002 -0.71 % 1.72 % 2018-01-01
576 Phil46 -0.71 % ** 0.52 % 2018-01-01
577 janemattress711 -0.74 % 0.91 % 2018-01-01
578 TURNIPSEED -0.76 % ** 0.98 % 2018-01-01
579 Medic72 -0.84 % 0.50 % 2018-01-01
580 KRSSDSU -0.84 % 0.98 % 2018-01-01
581 Trapperpaul -0.84 % 0.75 % 2018-01-01
582 raymonster -0.84 % ** 0.77 % 2018-01-01
583 tspintel -0.85 % 0.89 % 2018-01-01
584 batman -0.85 % ** 0.46 % 2018-01-01
585 Skorp64 -0.87 % -0.43 % 2018-01-01
586 limebalz -0.89 % 0.14 % 2018-01-01
587 1daybe -0.89 % ** 0.72 % 2018-01-01
588 nnewman -0.91 % 0.89 % 2018-01-01
589 Pill -0.91 % 0.77 % 2018-01-01
590 mikhalljr12 -0.91 % 0.92 % 2018-01-01
591 u.s.dan -0.91 % ** 0.65 % 2018-01-01
592 4acesnyc * -0.96 % 0.43 % 2018-06-25
593 SCHAGAN -0.97 % 0.89 % 2018-01-01
594 SWAVET -1.00 % ** 0.89 % 2018-01-01
595 ezcomeezgo -1.01 % 0.01 % 2018-01-01
596 Renegade -1.01 % ** 0.71 % 2018-01-01
597 smithdaz * -1.08 % 0.63 % 2018-10-19
598 Tangmonke -1.08 % ** 0.33 % 2018-01-01
599 ILoveTDs -1.08 % ** 0.89 % 2018-01-01
600 itsRaining -1.10 % ** 0.89 % 2018-01-01
Rank Username YTD Returns MTD Returns Start Date
601 Lester130 -1.13 % 1.07 % 2018-01-01
602 iyoung -1.13 % ** 1.00 % 2018-01-01
603 aeroconfigs -1.14 % ** 1.07 % 2018-01-01
604 seajpalm -1.15 % 1.26 % 2018-01-01
605 Becky -1.15 % ** 0.85 % 2018-01-01
606 Beamer -1.16 % 0.64 % 2018-01-01
607 Shamus13 -1.17 % -0.26 % 2018-01-01
608 rothnroll -1.18 % 0.97 % 2018-01-01
609 IreneToys -1.18 % 0.61 % 2018-01-01
610 FordMan -1.19 % 0.06 % 2018-01-01
611 joehacker -1.26 % 0.89 % 2018-01-01
612 WhiskeyOne -1.27 % ** 0.65 % 2018-01-01
613 vico512 -1.28 % ** 0.52 % 2018-01-01
614 MaxPowers -1.29 % ** 0.51 % 2018-01-01
615 DigDugII -1.31 % ** 0.73 % 2018-01-01
616 FatMan -1.35 % ** 0.89 % 2018-01-01
617 bayou4cj -1.35 % ** 0.65 % 2018-01-01
618 GEW -1.36 % ** 0.68 % 2018-01-01
619 hummingbird -1.37 % ** 0.98 % 2018-01-01
620 meHover -1.38 % ** 0.68 % 2018-01-01
621 Spaniard -1.38 % ** 0.14 % 2018-01-01
622 lineboy * -1.41 % ** 0.98 % 2018-05-14
623 Richman52 -1.42 % ** 0.68 % 2018-01-01
624 soupyBeard -1.42 % ** 0.68 % 2018-01-01
625 DeepFreeze -1.43 % ** 0.61 % 2018-01-01
626 pyrotalk * -1.46 % ** 0.81 % 2018-06-25
627 bluecrab -1.51 % ** 0.67 % 2018-01-01
628 Cyberzen -1.52 % ** 0.51 % 2018-01-01
629 Cash_Money -1.53 % 0.89 % 2018-01-01
630 TSP-roulette -1.55 % -0.58 % 2018-01-01
631 postalmatt -1.57 % 0.99 % 2018-01-01
632 Damndogs -1.58 % 0.89 % 2018-01-01
633 chinook -1.59 % -1.68 % 2018-01-01
634 LMBF1-CI>S -1.61 % 0.14 % 2018-01-01
635 tton -1.62 % 0.89 % 2018-01-01
636 jcohenatc * -1.62 % ** 0.84 % 2018-01-05
637 DanLovingood * -1.65 % ** 0.41 % 2018-01-26
638 fedgolfer -1.73 % ** 0.89 % 2018-01-01
639 Christopher -1.74 % -1.53 % 2018-01-01
640 evchau -1.75 % ** 0.60 % 2018-01-01
641 Toughmudder -1.80 % -0.36 % 2018-01-01
642 brian68 -1.82 % ** 0.94 % 2018-01-01
643 1FraGar -1.82 % ** 0.45 % 2018-01-01
644 99percent -1.82 % ** 0.45 % 2018-01-01
645 AHarvey311990 -1.82 % ** 0.45 % 2018-01-01
646 Blazer81.6 -1.82 % ** 0.45 % 2018-01-01
647 brew -1.82 % ** 0.45 % 2018-01-01
648 Erdude -1.82 % ** 0.45 % 2018-01-01
649 F-fund -1.82 % 0.45 % 2018-01-01
650 Gahiker -1.82 % ** 0.45 % 2018-01-01
Rank Username YTD Returns MTD Returns Start Date
651 ILTDtechnical -1.82 % ** 0.45 % 2018-01-01
652 malyla -1.82 % ** 0.45 % 2018-01-01
653 MMAC_POPS -1.82 % ** 0.45 % 2018-01-01
654 MrVela -1.82 % ** 0.45 % 2018-01-01
655 POPEG -1.82 % ** 0.45 % 2018-01-01
656 starmont36 -1.82 % ** 0.45 % 2018-01-01
657 trevor1953 -1.82 % ** 0.45 % 2018-01-01
658 wkevinc -1.82 % ** 0.45 % 2018-01-01
659 pvnala -1.83 % 0.14 % 2018-01-01
660 Risky1 -1.84 % ** 0.62 % 2018-01-01
661 Risky11 -1.84 % ** 0.62 % 2018-01-01
662 chemmie -1.85 % 1.19 % 2018-01-01
663 Retire -1.87 % 0.98 % 2018-01-01
664 berlinboy101 -1.87 % ** 0.67 % 2018-01-01
665 insocova -1.91 % ** 1.07 % 2018-01-01
666 magellan -1.93 % ** 0.53 % 2018-01-01
667 psuchris * -1.94 % 0.98 % 2018-01-10
668 elleni -1.96 % 0.94 % 2018-01-01
669 slsmul -1.96 % 0.78 % 2018-01-01
670 phlames -1.96 % ** 1.01 % 2018-01-01
671 Buckeye2014 -1.98 % ** 0.61 % 2018-01-01
672 murph -2.00 % 0.46 % 2018-01-01
673 bylow-cellhi -2.03 % ** 0.62 % 2018-01-01
674 Mport68 * -2.06 % -2.06 % 2018-11-07
675 Reggie0622 -2.07 % ** 0.89 % 2018-01-01
676 evilanne -2.09 % 0.61 % 2018-01-01
677 RoldanFam -2.11 % ** 0.52 % 2018-01-01
678 Totohydra -2.13 % -0.58 % 2018-01-01
679 2Plus -2.16 % -0.58 % 2018-01-01
680 wood7783 * -2.16 % ** 0.75 % 2018-02-16
681 FMS_MITCH -2.17 % 0.14 % 2018-01-01
682 Kaulana -2.24 % -0.78 % 2018-01-01
683 LilLair -2.26 % 0.57 % 2018-01-01
684 xsoljuhxpnoi929 -2.27 % 0.56 % 2018-01-01
685 42RL -2.27 % 0.56 % 2018-01-01
686 cwbys223 -2.27 % ** 0.64 % 2018-01-01
687 asuasylum -2.42 % 0.98 % 2018-01-01
688 buck1623 -2.43 % 0.67 % 2018-01-01
689 Boots22 -2.46 % ** 0.98 % 2018-01-01
690 whiskyfire -2.48 % ** 0.89 % 2018-01-01
691 rojasj * -2.52 % ** 0.77 % 2018-07-05
692 Citiz3nKane -2.53 % ** 0.59 % 2018-01-01
693 jsmiles -2.55 % ** 1.07 % 2018-01-01
694 smiles -2.55 % ** 1.07 % 2018-01-01
695 MacDaddy -2.60 % ** 0.89 % 2018-01-01
696 ybnormal -2.62 % -0.37 % 2018-01-01
697 crispy -2.66 % ** 0.89 % 2018-01-01
698 DeeBeeVA -2.74 % ** 0.61 % 2018-01-01
699 ksteiner560 -2.79 % 0.69 % 2018-01-01
700 talking2jets -2.81 % ** 0.89 % 2018-01-01
Rank Username YTD Returns MTD Returns Start Date
701 LongShot -2.81 % ** 0.89 % 2018-01-01
702 boilerman -2.83 % 1.02 % 2018-01-01
703 rbizz -2.86 % 0.89 % 2018-01-01
704 staussfam * -2.94 % 0.90 % 2018-08-16
705 lsbeachwx -2.98 % ** 0.55 % 2018-01-01
706 kstephen -2.99 % 0.98 % 2018-01-01
707 shamhawks * -2.99 % ** 0.10 % 2018-07-25
708 tom312 * -3.03 % ** 0.53 % 2018-07-25
709 mickeyelk -3.14 % 0.02 % 2018-01-01
710 homieg24 -3.15 % 0.88 % 2018-01-01
711 djlc86 * -3.16 % 1.43 % 2018-06-04
712 nightsters -3.17 % 0.89 % 2018-01-01
713 moneymikem -3.17 % ** 0.89 % 2018-01-01
714 thewingreaper -3.18 % 0.89 % 2018-01-01
715 cvlsvt2 * -3.21 % ** 0.61 % 2018-01-23
716 brobin10 -3.23 % 1.07 % 2018-01-01
717 lpac -3.25 % ** 0.07 % 2018-01-01
718 mrmaxd -3.26 % ** 0.07 % 2018-01-01
719 mschewy -3.28 % 1.07 % 2018-01-01
720 BigJohn -3.30 % ** 0.56 % 2018-01-01
721 kjb120169 -3.31 % 0.89 % 2018-01-01
722 Knot_Guilty -3.31 % ** 0.51 % 2018-01-01
723 sheepsakilla * -3.31 % ** 0.65 % 2018-06-15
724 polock * -3.32 % 1.07 % 2018-01-08
725 GetPoint -3.33 % 0.79 % 2018-01-01
726 Gypsy55 -3.36 % 0.14 % 2018-01-01
727 DreamboatAnnie -3.39 % 0.14 % 2018-01-01
728 HOGKOG * -3.39 % ** 0.95 % 2018-01-02
729 Nordic -3.41 % 0.14 % 2018-01-01
730 mathewsz7 -3.44 % 1.02 % 2018-01-01
731 Copedad -3.44 % ** 0.98 % 2018-01-01
732 BB-Stacker -3.49 % ** 0.89 % 2018-01-01
733 ArchAngel -3.52 % ** 0.89 % 2018-01-01
734 MrBowl -3.54 % 0.14 % 2018-01-01
735 an2040 -3.54 % ** 0.56 % 2018-01-01
736 joenavy * -3.63 % ** 0.90 % 2018-07-02
737 jf_2016 -3.68 % -0.15 % 2018-01-01
738 Boxholder -3.70 % -3.04 % 2018-01-01
739 BArREttLEEMAKINIT -3.77 % 0.89 % 2018-01-01
740 zeke * -3.80 % ** 0.69 % 2018-03-13
741 Redcalf -3.84 % ** 0.14 % 2018-01-01
742 kras -3.85 % 0.70 % 2018-01-01
743 Matt_R * -3.86 % ** 0.14 % 2018-03-02
744 Spydercop -3.87 % ** 0.67 % 2018-01-01
745 badeye28 -3.91 % 0.89 % 2018-01-01
746 Jetpowered78 -3.92 % -0.99 % 2018-01-01
747 Ritter_A_G * -3.97 % 0.83 % 2018-05-11
748 Bronco07 -4.04 % 0.80 % 2018-01-01
749 RichLife * -4.05 % ** 0.71 % 2018-07-18
750 Richard_Todd -4.14 % -0.54 % 2018-01-01
Rank Username YTD Returns MTD Returns Start Date
751 artists300 -4.16 % ** 0.47 % 2018-01-01
752 Congee -4.16 % ** 0.47 % 2018-01-01
753 modom07 -4.16 % ** 0.47 % 2018-01-01
754 spgenius -4.16 % ** 0.47 % 2018-01-01
755 thebreen -4.16 % ** 0.47 % 2018-01-01
756 tspsugar -4.16 % ** 0.47 % 2018-01-01
757 USMC6056 -4.16 % ** 0.47 % 2018-01-01
758 Sad_Al -4.25 % 1.63 % 2018-01-01
759 jsdiven -4.27 % -0.83 % 2018-01-01
760 gk10128 -4.29 % 0.14 % 2018-01-01
761 wevodau -4.35 % ** 0.89 % 2018-01-01
762 Cheng -4.44 % 0.42 % 2018-01-01
763 jball135 -4.52 % ** 0.34 % 2018-01-01
764 sjcook23 -4.57 % 0.89 % 2018-01-01
765 netforcer -4.59 % 0.98 % 2018-01-01
766 maui21ice -4.60 % ** 0.89 % 2018-01-01
767 Beagle -4.63 % 1.07 % 2018-01-01
768 sparky101 * -4.63 % ** 0.65 % 2018-09-11
769 Booster -4.67 % 0.00 % 2018-01-01
770 kodaq2001 -4.68 % ** 0.74 % 2018-01-01
771 DietFail * -4.69 % ** 0.97 % 2018-01-24
772 orange -4.71 % 0.98 % 2018-01-01
773 argyle64 -4.73 % -2.45 % 2018-01-01
774 FishSqueezer -4.75 % ** 0.14 % 2018-01-01
775 ssdave -4.76 % ** 0.96 % 2018-01-01
776 marshad_786 -4.87 % -0.04 % 2018-01-01
777 LMBF1_Day -4.93 % 0.14 % 2018-01-01
778 freemanick -4.96 % 0.14 % 2018-01-01
779 mpearson32 -4.97 % 0.89 % 2018-01-01
780 Pickles -4.98 % 0.15 % 2018-01-01
781 mbergevinjr -4.99 % 0.89 % 2018-01-01
782 sugarandspice * -5.02 % ** 0.89 % 2018-03-01
783 rgncajun68 -5.06 % ** 0.82 % 2018-01-01
784 RSJones -5.07 % 0.14 % 2018-01-01
785 richargs62 -5.11 % ** 0.38 % 2018-01-01
786 kathy73 -5.24 % 0.55 % 2018-01-01
787 cstiehl * -5.38 % ** 0.97 % 2018-07-09
788 Wizard_of_Oz -5.42 % ** 0.38 % 2018-01-01
789 Skooby -5.44 % 0.88 % 2018-01-01
790 krempajs -5.47 % ** 0.61 % 2018-01-01
791 40calSue -5.48 % 0.33 % 2018-01-01
792 Whipsaw -5.51 % -0.95 % 2018-01-01
793 Tailgate -5.51 % 0.14 % 2018-01-01
794 scrsvs -5.55 % 0.89 % 2018-01-01
795 gratski20 -5.58 % ** 0.67 % 2018-01-01
796 14bk41 -5.58 % ** 0.89 % 2018-01-01
797 Chorizo -5.68 % ** 0.95 % 2018-01-01
798 NotReally! -5.69 % ** 0.89 % 2018-01-01
799 Sonic -5.74 % 0.89 % 2018-01-01
800 SPOT_LT -5.77 % 1.00 % 2018-01-01
Rank Username YTD Returns MTD Returns Start Date
801 rebel346 -5.80 % ** 0.89 % 2018-01-01
802 Greg -5.81 % ** 0.72 % 2018-01-01
803 rangerray -5.86 % ** 0.94 % 2018-01-01
804 ixraytoo * -5.89 % -2.62 % 2018-03-02
805 Clue -5.90 % -0.51 % 2018-01-01
806 SICK2MYSTOMACH -5.92 % 0.98 % 2018-01-01
807 FUNDminer -5.95 % -2.62 % 2018-01-01
808 siidman -5.96 % 0.17 % 2018-01-01
809 bo1972 * -5.98 % ** 0.95 % 2018-07-13
810 LMBF1_C>S -5.99 % 0.14 % 2018-01-01
811 kraplrak -5.99 % 0.89 % 2018-01-01
812 cmccall661 -6.00 % ** 0.89 % 2018-01-01
813 flg22 -6.10 % 0.89 % 2018-01-01
814 Scraps -6.20 % 0.10 % 2018-01-01
815 pokerstar629 -6.22 % 3.75 % 2018-01-01
816 cpowith4 -6.23 % 0.91 % 2018-01-01
817 lartra -6.26 % 0.64 % 2018-01-01
818 UCFVern -6.27 % 0.14 % 2018-01-01
819 BigLair -6.35 % 0.23 % 2018-01-01
820 Keithj01 -6.36 % 2.25 % 2018-01-01
821 silversurfer -6.38 % 0.00 % 2018-01-01
822 ChessGuy -6.40 % ** 0.89 % 2018-01-01
823 Wilycoyote -6.42 % ** 0.83 % 2018-01-01
824 IndianaJones -6.43 % ** 0.98 % 2018-01-01
825 Cinderella99 * -6.48 % 0.89 % 2018-01-04
826 meltuna -6.54 % ** 0.24 % 2018-01-01
827 Hoss2112 * -6.57 % ** 0.89 % 2018-01-25
828 JaBlack -6.61 % 2.20 % 2018-01-01
829 road_kill -6.62 % ** 0.00 % 2018-01-01
830 TopNotch * -6.64 % 0.89 % 2018-06-29
831 rookiecsi -6.67 % ** 0.14 % 2018-01-01
832 peafunk * -6.73 % 0.54 % 2018-08-03
833 killjoy * -6.73 % ** 0.98 % 2018-08-21
834 silver2828 -6.77 % ** 0.89 % 2018-01-01
835 RDJ67 -6.79 % ** 0.98 % 2018-01-01
836 JABS -6.81 % 0.98 % 2018-01-01
837 walldog -6.85 % -2.87 % 2018-01-01
838 ekoncepts -6.87 % ** 0.14 % 2018-01-01
839 EZ2K -6.88 % ** 0.80 % 2018-01-01
840 EarlyRTr -6.97 % 0.44 % 2018-01-01
841 Tsunami -7.02 % -1.19 % 2018-01-01
842 javier.gonzalez7 * -7.05 % 0.89 % 2018-10-04
843 MaStA -7.07 % 1.07 % 2018-01-01
844 6LPSD -7.07 % ** 0.73 % 2018-01-01
845 Edwini * -7.10 % 0.94 % 2018-09-14
846 JackPaul * -7.20 % ** 0.98 % 2018-09-10
847 69mustang -7.25 % ** 0.89 % 2018-01-01
848 tom1tom1 -7.29 % 0.53 % 2018-01-01
849 NavyGirl88 -7.34 % 0.89 % 2018-01-01
850 MoneyTalks -7.39 % 0.77 % 2018-01-01
Rank Username YTD Returns MTD Returns Start Date
851 Klausvonbg -7.48 % ** 0.94 % 2018-01-01
852 kashmo * -7.52 % 0.54 % 2018-09-21
853 czapor1967 -7.56 % ** 0.89 % 2018-01-01
854 pjsstuff71 -7.71 % ** 0.00 % 2018-01-01
855 suspectorj * -7.77 % 0.98 % 2018-09-24
856 supasoju * -7.79 % ** 0.89 % 2018-02-02
857 bmneveu -7.79 % ** 0.00 % 2018-01-01
858 paulsz28 -7.83 % -0.21 % 2018-01-01
859 bjean -7.85 % -0.57 % 2018-01-01
860 ShadowHawk -7.85 % 1.07 % 2018-01-01
861 maverick06 -7.90 % -0.21 % 2018-01-01
862 bamafamily -7.90 % ** 0.62 % 2018-01-01
863 thinkman -7.94 % ** 1.07 % 2018-01-01
864 FireWeatherMet -7.95 % 4.23 % 2018-01-01
865 indgilbert -8.10 % ** 0.89 % 2018-01-01
866 michigander * -8.10 % ** 0.89 % 2018-08-06
867 Skunked -8.28 % ** 0.89 % 2018-01-01
868 mindbox * -8.28 % ** 0.89 % 2018-08-08
869 NOLANDER -8.32 % 0.89 % 2018-01-01
870 SmogelpoT * -8.42 % ** 0.68 % 2018-01-09
871 zthompson -8.44 % 0.14 % 2018-01-01
872 CCT2010 * -8.61 % ** 0.45 % 2018-01-31
873 jspinella1 * -8.62 % -2.55 % 2018-08-23
874 klaron -8.64 % ** 0.00 % 2018-01-01
875 CrgButcher -8.80 % 0.14 % 2018-01-01
876 Roddhsi -8.89 % 0.31 % 2018-01-01
877 BellCopterJockey -8.92 % ** 0.00 % 2018-01-01
878 cletuss -8.92 % ** 0.00 % 2018-01-01
879 dillpickle -8.92 % ** 0.00 % 2018-01-01
880 I-fund -8.92 % 0.00 % 2018-01-01
881 jpwmasters -8.92 % ** 0.00 % 2018-01-01
882 judochop -8.92 % ** 0.00 % 2018-01-01
883 kbennet1 -8.92 % ** 0.00 % 2018-01-01
884 Monzie -8.92 % ** 0.00 % 2018-01-01
885 MrJohnRoss -8.92 % ** 0.00 % 2018-01-01
886 nancyj -8.92 % ** 0.00 % 2018-01-01
887 OldGoat -8.92 % ** 0.00 % 2018-01-01
888 roadpuppe -8.92 % ** 0.00 % 2018-01-01
889 sanfran814 -8.92 % ** 0.00 % 2018-01-01
890 Skip -8.92 % ** 0.00 % 2018-01-01
891 triquasar -8.92 % ** 0.00 % 2018-01-01
892 ztlmike -8.93 % 0.98 % 2018-01-01
893 tvenos40 * -8.94 % ** 0.34 % 2018-01-12
894 crommie -8.95 % -2.56 % 2018-01-01
895 Skorcher -8.95 % 0.14 % 2018-01-01
896 Guvnah * -9.07 % 0.14 % 2018-03-01
897 rossbrian00 -9.15 % ** 0.00 % 2018-01-01
898 Frequent_Traveler * -9.26 % ** 0.00 % 2018-01-03
899 gio20 -9.31 % 0.89 % 2018-01-01
900 Scrappy -9.44 % 0.89 % 2018-01-01
Rank Username YTD Returns MTD Returns Start Date
901 skeeter -9.52 % -0.38 % 2018-01-01
902 zegerst -9.54 % -0.55 % 2018-01-01
903 leiko49 * -9.64 % ** 0.89 % 2018-08-20
904 loco_lobo -9.88 % ** 0.00 % 2018-01-01
905 Cruser -10.04 % -1.18 % 2018-01-01
906 kitaw33 -10.48 % 0.89 % 2018-01-01
907 Skyrider2020 -10.56 % ** 0.98 % 2018-01-01
908 GenStar -10.60 % 0.89 % 2018-01-01
909 shitepoke -10.82 % -2.84 % 2018-01-01
910 cosinecrunchdown -11.28 % 0.89 % 2018-01-01
911 les2l8 -11.32 % -0.10 % 2018-01-01
912 eager * -11.41 % ** 0.46 % 2018-01-24
913 MRJ -11.54 % 0.94 % 2018-01-01
914 ward5820 -11.63 % 0.14 % 2018-01-01
915 tucahay -13.81 % ** 0.00 % 2018-01-01
916 cawwilson -18.10 % -1.12 % 2018-01-01
* = Partial Year Return ** = Idle Account - Not eligible for monthly prize
- Hidden = User has not logged in for at least 180 days.

The AutoTracker is a contest that measures the return of your investment decisions as compared to other members' returns.  Because deposits can readjust your allocations, your actual TSP account returns will vary.  To track your returns more accurately, try using one of our returns spreadsheets.
Main Menu | My Allocation | My Records | IFT of the day | Members Records | Members Standings | Returns Analysis | Ocean's List | Fund prices | Logout

This tracking system is for entertainment purposes only and is not affiliated with the official Thrift Savings Plan website, www.tsp.gov. It is free to use by our site members, however we reserved the right to terminate any member's account without prior notice. You will need to do your own transfers through the www.tsp.gov website for the actual transfer. This tracking system is the IFT allocation reporting system for TSPtalk.com members only and will not impact your actual Thrift Savings Plan account.
The TSP Talk AutoTracker was designed, developed, and contributed to TSP Talk by our own member, ocean.
 
Copyright © 2003 - 2018 Buy Low Sell High, Inc.
TSPtalk.com®: is a trademark of Buy Low Sell High, Inc.
All Rights Reserved
Buy Low Sell High, Inc., P.O. Box 13213, Ogden UT 84412